sensor_id;sensor_type;location;lat;lon;timestamp;temperature;humidity
7472;DHT22;3777;48.722;8.110;2023-08-07T00:00:54;14.00;99.90
7472;DHT22;3777;48.722;8.110;2023-08-07T00:03:21;14.10;99.90
7472;DHT22;3777;48.722;8.110;2023-08-07T00:05:48;14.20;99.90
7472;DHT22;3777;48.722;8.110;2023-08-07T00:08:18;14.30;99.90
7472;DHT22;3777;48.722;8.110;2023-08-07T00:10:45;14.30;99.90
7472;DHT22;3777;48.722;8.110;2023-08-07T00:13:13;14.30;99.90
7472;DHT22;3777;48.722;8.110;2023-08-07T00:15:40;14.30;99.90
7472;DHT22;3777;48.722;8.110;2023-08-07T00:18:07;14.30;99.90
7472;DHT22;3777;48.722;8.110;2023-08-07T00:20:34;14.40;99.90
7472;DHT22;3777;48.722;8.110;2023-08-07T00:23:01;14.50;99.90
7472;DHT22;3777;48.722;8.110;2023-08-07T00:25:29;14.50;99.90
7472;DHT22;3777;48.722;8.110;2023-08-07T00:27:56;14.30;99.90
7472;DHT22;3777;48.722;8.110;2023-08-07T00:30:23;14.30;99.90
7472;DHT22;3777;48.722;8.110;2023-08-07T00:32:50;14.40;99.90
7472;DHT22;3777;48.722;8.110;2023-08-07T00:35:17;14.40;99.90
7472;DHT22;3777;48.722;8.110;2023-08-07T00:37:44;14.50;99.90
7472;DHT22;3777;48.722;8.110;2023-08-07T00:40:11;14.50;99.90
7472;DHT22;3777;48.722;8.110;2023-08-07T00:42:39;14.50;99.90
7472;DHT22;3777;48.722;8.110;2023-08-07T00:45:07;14.60;99.90
7472;DHT22;3777;48.722;8.110;2023-08-07T00:47:34;14.60;99.90
7472;DHT22;3777;48.722;8.110;2023-08-07T00:50:04;14.60;99.90
7472;DHT22;3777;48.722;8.110;2023-08-07T00:52:32;14.70;99.90
7472;DHT22;3777;48.722;8.110;2023-08-07T00:54:59;14.70;99.90
7472;DHT22;3777;48.722;8.110;2023-08-07T00:57:26;14.70;99.90
7472;DHT22;3777;48.722;8.110;2023-08-07T00:59:54;14.50;99.90
7472;DHT22;3777;48.722;8.110;2023-08-07T01:02:21;14.40;99.90
7472;DHT22;3777;48.722;8.110;2023-08-07T01:04:49;14.30;99.90
7472;DHT22;3777;48.722;8.110;2023-08-07T01:07:16;14.20;99.90
7472;DHT22;3777;48.722;8.110;2023-08-07T01:09:43;14.10;99.90
7472;DHT22;3777;48.722;8.110;2023-08-07T01:12:15;14.10;99.90
7472;DHT22;3777;48.722;8.110;2023-08-07T01:14:51;14.10;99.90
7472;DHT22;3777;48.722;8.110;2023-08-07T01:17:22;14.00;99.90
7472;DHT22;3777;48.722;8.110;2023-08-07T01:19:50;14.00;99.90
7472;DHT22;3777;48.722;8.110;2023-08-07T01:22:20;13.90;99.90
7472;DHT22;3777;48.722;8.110;2023-08-07T01:24:48;14.00;99.90
7472;DHT22;3777;48.722;8.110;2023-08-07T01:27:35;13.90;99.90
7472;DHT22;3777;48.722;8.110;2023-08-07T01:30:09;13.80;99.90
7472;DHT22;3777;48.722;8.110;2023-08-07T01:32:43;13.80;99.90
7472;DHT22;3777;48.722;8.110;2023-08-07T01:35:14;13.80;99.90
7472;DHT22;3777;48.722;8.110;2023-08-07T01:37:43;13.70;99.90
7472;DHT22;3777;48.722;8.110;2023-08-07T01:40:11;13.60;99.90
7472;DHT22;3777;48.722;8.110;2023-08-07T01:42:39;13.60;99.90
7472;DHT22;3777;48.722;8.110;2023-08-07T01:45:06;13.50;99.90
7472;DHT22;3777;48.722;8.110;2023-08-07T01:47:34;13.50;99.90
7472;DHT22;3777;48.722;8.110;2023-08-07T01:50:01;13.50;99.90
7472;DHT22;3777;48.722;8.110;2023-08-07T01:52:28;13.40;99.90
7472;DHT22;3777;48.722;8.110;2023-08-07T01:54:56;13.50;99.90
7472;DHT22;3777;48.722;8.110;2023-08-07T01:57:23;13.50;99.90
7472;DHT22;3777;48.722;8.110;2023-08-07T01:59:51;13.50;99.90
7472;DHT22;3777;48.722;8.110;2023-08-07T02:02:18;13.50;99.90
7472;DHT22;3777;48.722;8.110;2023-08-07T02:04:45;13.40;99.90
7472;DHT22;3777;48.722;8.110;2023-08-07T02:07:12;13.40;99.90
7472;DHT22;3777;48.722;8.110;2023-08-07T02:09:39;13.30;99.90
7472;DHT22;3777;48.722;8.110;2023-08-07T02:12:08;13.20;99.90
7472;DHT22;3777;48.722;8.110;2023-08-07T02:14:35;13.20;99.90
7472;DHT22;3777;48.722;8.110;2023-08-07T02:17:02;13.10;99.90
7472;DHT22;3777;48.722;8.110;2023-08-07T02:19:29;13.20;99.90
7472;DHT22;3777;48.722;8.110;2023-08-07T02:21:56;13.10;99.90
7472;DHT22;3777;48.722;8.110;2023-08-07T02:24:23;13.10;99.90
7472;DHT22;3777;48.722;8.110;2023-08-07T02:26:50;13.20;99.90
7472;DHT22;3777;48.722;8.110;2023-08-07T02:29:21;13.20;99.90
7472;DHT22;3777;48.722;8.110;2023-08-07T02:31:48;13.20;99.90
7472;DHT22;3777;48.722;8.110;2023-08-07T02:34:15;13.10;99.90
7472;DHT22;3777;48.722;8.110;2023-08-07T02:36:42;13.10;99.90
7472;DHT22;3777;48.722;8.110;2023-08-07T02:39:08;13.10;99.90
7472;DHT22;3777;48.722;8.110;2023-08-07T02:41:35;13.10;99.90
7472;DHT22;3777;48.722;8.110;2023-08-07T02:44:02;13.10;99.90
7472;DHT22;3777;48.722;8.110;2023-08-07T02:46:31;13.00;99.90
7472;DHT22;3777;48.722;8.110;2023-08-07T02:49:00;13.00;99.90
7472;DHT22;3777;48.722;8.110;2023-08-07T02:51:27;13.00;99.90
7472;DHT22;3777;48.722;8.110;2023-08-07T02:53:54;13.00;99.90
7472;DHT22;3777;48.722;8.110;2023-08-07T02:56:21;13.00;99.90
7472;DHT22;3777;48.722;8.110;2023-08-07T02:58:47;13.00;99.90
7472;DHT22;3777;48.722;8.110;2023-08-07T03:01:16;13.00;99.90
7472;DHT22;3777;48.722;8.110;2023-08-07T03:03:45;13.00;99.90
7472;DHT22;3777;48.722;8.110;2023-08-07T03:06:12;13.00;99.90
7472;DHT22;3777;48.722;8.110;2023-08-07T03:08:39;13.00;99.90
7472;DHT22;3777;48.722;8.110;2023-08-07T03:11:08;13.00;99.90
7472;DHT22;3777;48.722;8.110;2023-08-07T03:13:35;13.00;99.90
7472;DHT22;3777;48.722;8.110;2023-08-07T03:16:03;13.00;99.90
7472;DHT22;3777;48.722;8.110;2023-08-07T03:18:31;13.00;99.90
7472;DHT22;3777;48.722;8.110;2023-08-07T03:20:59;12.90;99.90
7472;DHT22;3777;48.722;8.110;2023-08-07T03:23:27;13.00;99.90
7472;DHT22;3777;48.722;8.110;2023-08-07T03:26:02;13.00;99.90
7472;DHT22;3777;48.722;8.110;2023-08-07T03:28:29;13.00;99.90
7472;DHT22;3777;48.722;8.110;2023-08-07T03:30:56;13.10;99.90
7472;DHT22;3777;48.722;8.110;2023-08-07T03:33:23;13.10;99.90
7472;DHT22;3777;48.722;8.110;2023-08-07T03:35:50;13.10;99.90
7472;DHT22;3777;48.722;8.110;2023-08-07T03:38:19;13.00;99.90
7472;DHT22;3777;48.722;8.110;2023-08-07T03:40:46;13.10;99.90
7472;DHT22;3777;48.722;8.110;2023-08-07T03:43:13;13.20;99.90
7472;DHT22;3777;48.722;8.110;2023-08-07T03:45:40;13.20;99.90
7472;DHT22;3777;48.722;8.110;2023-08-07T03:48:07;13.30;99.90
7472;DHT22;3777;48.722;8.110;2023-08-07T03:50:34;13.30;99.90
7472;DHT22;3777;48.722;8.110;2023-08-07T03:53:03;13.30;99.90
7472;DHT22;3777;48.722;8.110;2023-08-07T03:55:34;13.30;99.90
7472;DHT22;3777;48.722;8.110;2023-08-07T03:58:01;13.40;99.90
7472;DHT22;3777;48.722;8.110;2023-08-07T04:00:28;13.30;99.90
7472;DHT22;3777;48.722;8.110;2023-08-07T04:02:58;13.30;99.90
7472;DHT22;3777;48.722;8.110;2023-08-07T04:05:25;13.30;99.90
7472;DHT22;3777;48.722;8.110;2023-08-07T04:07:51;13.40;99.90
7472;DHT22;3777;48.722;8.110;2023-08-07T04:10:18;13.50;99.90
7472;DHT22;3777;48.722;8.110;2023-08-07T04:12:47;13.50;99.90
7472;DHT22;3777;48.722;8.110;2023-08-07T04:15:14;13.50;99.90
7472;DHT22;3777;48.722;8.110;2023-08-07T04:17:41;13.60;99.90
7472;DHT22;3777;48.722;8.110;2023-08-07T04:20:09;13.70;99.90
7472;DHT22;3777;48.722;8.110;2023-08-07T04:22:36;13.70;99.90
7472;DHT22;3777;48.722;8.110;2023-08-07T04:25:04;13.60;99.90
7472;DHT22;3777;48.722;8.110;2023-08-07T04:27:31;13.60;99.90
7472;DHT22;3777;48.722;8.110;2023-08-07T04:29:59;13.60;99.90
7472;DHT22;3777;48.722;8.110;2023-08-07T04:32:26;13.70;99.90
7472;DHT22;3777;48.722;8.110;2023-08-07T04:34:53;13.70;99.90
7472;DHT22;3777;48.722;8.110;2023-08-07T04:37:20;13.70;99.90
7472;DHT22;3777;48.722;8.110;2023-08-07T04:39:47;13.80;99.90
7472;DHT22;3777;48.722;8.110;2023-08-07T04:42:14;13.80;99.90
7472;DHT22;3777;48.722;8.110;2023-08-07T04:44:41;14.00;99.90
7472;DHT22;3777;48.722;8.110;2023-08-07T04:47:09;13.90;99.90
7472;DHT22;3777;48.722;8.110;2023-08-07T04:49:36;14.00;99.90
7472;DHT22;3777;48.722;8.110;2023-08-07T04:52:03;14.10;99.90
7472;DHT22;3777;48.722;8.110;2023-08-07T04:54:30;14.20;99.90
7472;DHT22;3777;48.722;8.110;2023-08-07T04:56:57;14.30;99.90
7472;DHT22;3777;48.722;8.110;2023-08-07T04:59:24;14.40;99.90
7472;DHT22;3777;48.722;8.110;2023-08-07T05:01:51;14.40;99.90
7472;DHT22;3777;48.722;8.110;2023-08-07T05:04:19;14.50;99.90
7472;DHT22;3777;48.722;8.110;2023-08-07T05:06:46;14.50;99.90
7472;DHT22;3777;48.722;8.110;2023-08-07T05:09:14;14.50;99.90
7472;DHT22;3777;48.722;8.110;2023-08-07T05:11:43;14.60;99.90
7472;DHT22;3777;48.722;8.110;2023-08-07T05:14:10;14.50;99.90
7472;DHT22;3777;48.722;8.110;2023-08-07T05:16:37;14.60;99.90
7472;DHT22;3777;48.722;8.110;2023-08-07T05:19:04;14.70;99.90
7472;DHT22;3777;48.722;8.110;2023-08-07T05:21:33;14.90;99.90
7472;DHT22;3777;48.722;8.110;2023-08-07T05:24:00;14.90;99.90
7472;DHT22;3777;48.722;8.110;2023-08-07T05:26:27;15.00;99.90
7472;DHT22;3777;48.722;8.110;2023-08-07T05:28:55;15.10;99.90
7472;DHT22;3777;48.722;8.110;2023-08-07T05:31:23;15.20;99.90
7472;DHT22;3777;48.722;8.110;2023-08-07T05:33:50;15.30;99.90
7472;DHT22;3777;48.722;8.110;2023-08-07T05:36:17;15.40;99.90
7472;DHT22;3777;48.722;8.110;2023-08-07T05:38:45;15.50;99.90
7472;DHT22;3777;48.722;8.110;2023-08-07T05:41:12;15.60;99.90
7472;DHT22;3777;48.722;8.110;2023-08-07T05:43:39;15.70;99.90
7472;DHT22;3777;48.722;8.110;2023-08-07T05:46:06;15.60;99.90
7472;DHT22;3777;48.722;8.110;2023-08-07T05:48:33;15.70;99.90
7472;DHT22;3777;48.722;8.110;2023-08-07T05:51:01;15.60;99.90
7472;DHT22;3777;48.722;8.110;2023-08-07T05:53:28;15.60;99.90
7472;DHT22;3777;48.722;8.110;2023-08-07T05:55:56;15.60;99.90
7472;DHT22;3777;48.722;8.110;2023-08-07T05:58:23;15.60;99.90
7472;DHT22;3777;48.722;8.110;2023-08-07T06:00:50;15.60;99.90
7472;DHT22;3777;48.722;8.110;2023-08-07T06:03:17;15.70;99.90
7472;DHT22;3777;48.722;8.110;2023-08-07T06:05:44;15.70;99.90
7472;DHT22;3777;48.722;8.110;2023-08-07T06:08:11;15.80;99.90
7472;DHT22;3777;48.722;8.110;2023-08-07T06:10:38;16.00;99.90
7472;DHT22;3777;48.722;8.110;2023-08-07T06:13:06;16.00;99.90
7472;DHT22;3777;48.722;8.110;2023-08-07T06:15:34;16.00;99.90
7472;DHT22;3777;48.722;8.110;2023-08-07T06:18:00;16.00;99.90
7472;DHT22;3777;48.722;8.110;2023-08-07T06:20:28;16.20;99.90
7472;DHT22;3777;48.722;8.110;2023-08-07T06:22:54;16.60;99.90
7472;DHT22;3777;48.722;8.110;2023-08-07T06:25:21;16.80;99.90
7472;DHT22;3777;48.722;8.110;2023-08-07T06:27:50;16.70;99.90
7472;DHT22;3777;48.722;8.110;2023-08-07T06:30:19;16.70;99.90
7472;DHT22;3777;48.722;8.110;2023-08-07T06:32:46;16.90;99.90
7472;DHT22;3777;48.722;8.110;2023-08-07T06:35:13;17.10;99.90
7472;DHT22;3777;48.722;8.110;2023-08-07T06:37:40;17.10;99.90
7472;DHT22;3777;48.722;8.110;2023-08-07T06:40:08;17.10;99.90
7472;DHT22;3777;48.722;8.110;2023-08-07T06:42:35;17.10;99.90
7472;DHT22;3777;48.722;8.110;2023-08-07T06:45:03;16.80;99.90
7472;DHT22;3777;48.722;8.110;2023-08-07T06:47:31;16.70;99.90
7472;DHT22;3777;48.722;8.110;2023-08-07T06:49:58;16.70;99.90
7472;DHT22;3777;48.722;8.110;2023-08-07T06:52:25;16.90;99.90
7472;DHT22;3777;48.722;8.110;2023-08-07T06:54:52;17.00;99.90
7472;DHT22;3777;48.722;8.110;2023-08-07T06:57:19;17.00;99.90
7472;DHT22;3777;48.722;8.110;2023-08-07T06:59:46;17.20;99.90
7472;DHT22;3777;48.722;8.110;2023-08-07T07:02:13;17.60;99.90
7472;DHT22;3777;48.722;8.110;2023-08-07T07:04:42;17.60;99.90
7472;DHT22;3777;48.722;8.110;2023-08-07T07:07:09;17.60;99.90
7472;DHT22;3777;48.722;8.110;2023-08-07T07:09:36;17.80;99.90
7472;DHT22;3777;48.722;8.110;2023-08-07T07:12:03;17.80;99.90
7472;DHT22;3777;48.722;8.110;2023-08-07T07:14:32;18.00;99.90
7472;DHT22;3777;48.722;8.110;2023-08-07T07:16:59;18.00;99.90
7472;DHT22;3777;48.722;8.110;2023-08-07T07:19:26;18.10;99.90
7472;DHT22;3777;48.722;8.110;2023-08-07T07:21:55;18.20;99.90
7472;DHT22;3777;48.722;8.110;2023-08-07T07:24:22;18.30;99.90
7472;DHT22;3777;48.722;8.110;2023-08-07T07:26:48;18.40;99.90
7472;DHT22;3777;48.722;8.110;2023-08-07T07:29:17;18.40;99.90
7472;DHT22;3777;48.722;8.110;2023-08-07T07:31:44;18.40;99.90
7472;DHT22;3777;48.722;8.110;2023-08-07T07:34:11;18.30;99.90
7472;DHT22;3777;48.722;8.110;2023-08-07T07:36:38;18.40;99.90
7472;DHT22;3777;48.722;8.110;2023-08-07T07:39:06;18.60;99.90
7472;DHT22;3777;48.722;8.110;2023-08-07T07:41:33;18.90;99.90
7472;DHT22;3777;48.722;8.110;2023-08-07T07:44:00;19.10;99.90
7472;DHT22;3777;48.722;8.110;2023-08-07T07:46:27;19.20;99.90
7472;DHT22;3777;48.722;8.110;2023-08-07T07:48:55;19.30;99.90
7472;DHT22;3777;48.722;8.110;2023-08-07T07:51:22;19.20;99.90
7472;DHT22;3777;48.722;8.110;2023-08-07T07:53:49;18.90;99.90
7472;DHT22;3777;48.722;8.110;2023-08-07T07:56:18;18.90;99.90
7472;DHT22;3777;48.722;8.110;2023-08-07T07:58:45;19.00;99.90
7472;DHT22;3777;48.722;8.110;2023-08-07T08:01:12;19.20;99.90
7472;DHT22;3777;48.722;8.110;2023-08-07T08:03:39;19.40;99.90
7472;DHT22;3777;48.722;8.110;2023-08-07T08:06:06;19.40;99.90
7472;DHT22;3777;48.722;8.110;2023-08-07T08:08:36;19.40;99.90
7472;DHT22;3777;48.722;8.110;2023-08-07T08:11:02;19.60;99.90
7472;DHT22;3777;48.722;8.110;2023-08-07T08:13:31;19.60;99.90
7472;DHT22;3777;48.722;8.110;2023-08-07T08:15:59;19.80;99.90
7472;DHT22;3777;48.722;8.110;2023-08-07T08:18:26;19.80;99.90
7472;DHT22;3777;48.722;8.110;2023-08-07T08:20:54;19.80;99.90
7472;DHT22;3777;48.722;8.110;2023-08-07T08:23:21;20.00;99.90
7472;DHT22;3777;48.722;8.110;2023-08-07T08:25:48;19.90;99.90
7472;DHT22;3777;48.722;8.110;2023-08-07T08:28:17;20.00;99.90
7472;DHT22;3777;48.722;8.110;2023-08-07T08:30:48;20.10;99.90
7472;DHT22;3777;48.722;8.110;2023-08-07T08:33:18;20.30;99.90
7472;DHT22;3777;48.722;8.110;2023-08-07T08:35:46;20.50;99.90
7472;DHT22;3777;48.722;8.110;2023-08-07T08:38:14;20.80;99.90
7472;DHT22;3777;48.722;8.110;2023-08-07T08:40:42;21.20;99.90
7472;DHT22;3777;48.722;8.110;2023-08-07T08:43:11;21.40;99.90
7472;DHT22;3777;48.722;8.110;2023-08-07T08:45:40;21.50;99.90
7472;DHT22;3777;48.722;8.110;2023-08-07T08:48:12;21.40;99.90
7472;DHT22;3777;48.722;8.110;2023-08-07T08:50:42;21.40;99.90
7472;DHT22;3777;48.722;8.110;2023-08-07T08:53:10;21.70;99.90
7472;DHT22;3777;48.722;8.110;2023-08-07T08:55:37;22.00;99.90
7472;DHT22;3777;48.722;8.110;2023-08-07T08:58:08;22.20;99.90
7472;DHT22;3777;48.722;8.110;2023-08-07T09:00:36;22.10;99.90
7472;DHT22;3777;48.722;8.110;2023-08-07T09:03:03;22.10;99.90
7472;DHT22;3777;48.722;8.110;2023-08-07T09:05:31;22.20;99.90
7472;DHT22;3777;48.722;8.110;2023-08-07T09:07:59;23.40;99.90
7472;DHT22;3777;48.722;8.110;2023-08-07T09:10:27;23.80;99.90
7472;DHT22;3777;48.722;8.110;2023-08-07T09:13:00;24.60;99.90
7472;DHT22;3777;48.722;8.110;2023-08-07T09:15:29;25.20;99.90
7472;DHT22;3777;48.722;8.110;2023-08-07T09:17:58;25.80;99.90
7472;DHT22;3777;48.722;8.110;2023-08-07T09:20:27;26.20;98.80
7472;DHT22;3777;48.722;8.110;2023-08-07T09:22:56;26.10;97.70
7472;DHT22;3777;48.722;8.110;2023-08-07T09:25:30;25.90;97.10
7472;DHT22;3777;48.722;8.110;2023-08-07T09:27:57;25.80;96.00
7472;DHT22;3777;48.722;8.110;2023-08-07T09:30:27;25.80;97.40
7472;DHT22;3777;48.722;8.110;2023-08-07T09:32:56;25.40;96.40
7472;DHT22;3777;48.722;8.110;2023-08-07T09:35:23;25.10;97.70
7472;DHT22;3777;48.722;8.110;2023-08-07T09:37:50;25.30;96.40
7472;DHT22;3777;48.722;8.110;2023-08-07T09:40:19;25.10;96.40
7472;DHT22;3777;48.722;8.110;2023-08-07T09:42:50;24.80;96.90
7472;DHT22;3777;48.722;8.110;2023-08-07T09:45:21;25.10;96.70
7472;DHT22;3777;48.722;8.110;2023-08-07T09:47:59;25.30;95.50
7472;DHT22;3777;48.722;8.110;2023-08-07T09:50:26;24.80;95.60
7472;DHT22;3777;48.722;8.110;2023-08-07T09:52:53;25.30;95.60
7472;DHT22;3777;48.722;8.110;2023-08-07T09:55:25;25.80;95.80
7472;DHT22;3777;48.722;8.110;2023-08-07T09:57:52;27.20;95.40
7472;DHT22;3777;48.722;8.110;2023-08-07T10:00:19;27.60;91.00
7472;DHT22;3777;48.722;8.110;2023-08-07T10:02:47;29.30;91.70
7472;DHT22;3777;48.722;8.110;2023-08-07T10:05:14;30.90;87.30
7472;DHT22;3777;48.722;8.110;2023-08-07T10:07:41;31.30;77.20
7472;DHT22;3777;48.722;8.110;2023-08-07T10:10:09;31.90;72.60
7472;DHT22;3777;48.722;8.110;2023-08-07T10:12:38;32.80;68.10
7472;DHT22;3777;48.722;8.110;2023-08-07T10:15:06;32.80;64.80
7472;DHT22;3777;48.722;8.110;2023-08-07T10:17:35;34.30;58.80
7472;DHT22;3777;48.722;8.110;2023-08-07T10:20:02;33.60;58.70
7472;DHT22;3777;48.722;8.110;2023-08-07T10:22:30;34.70;55.60
7472;DHT22;3777;48.722;8.110;2023-08-07T10:25:01;34.30;55.30
7472;DHT22;3777;48.722;8.110;2023-08-07T10:27:30;32.80;53.40
7472;DHT22;3777;48.722;8.110;2023-08-07T10:30:04;31.90;55.90
7472;DHT22;3777;48.722;8.110;2023-08-07T10:32:33;32.30;54.90
7472;DHT22;3777;48.722;8.110;2023-08-07T10:35:03;32.10;55.70
7472;DHT22;3777;48.722;8.110;2023-08-07T10:37:39;31.30;54.30
7472;DHT22;3777;48.722;8.110;2023-08-07T10:40:07;29.70;55.70
7472;DHT22;3777;48.722;8.110;2023-08-07T10:42:51;29.80;56.60
7472;DHT22;3777;48.722;8.110;2023-08-07T10:45:20;30.80;57.20
7472;DHT22;3777;48.722;8.110;2023-08-07T10:47:57;31.40;56.30
7472;DHT22;3777;48.722;8.110;2023-08-07T10:50:28;31.70;55.40
7472;DHT22;3777;48.722;8.110;2023-08-07T10:52:56;31.40;53.90
7472;DHT22;3777;48.722;8.110;2023-08-07T10:55:23;30.90;56.70
7472;DHT22;3777;48.722;8.110;2023-08-07T10:57:50;29.20;56.40
7472;DHT22;3777;48.722;8.110;2023-08-07T11:00:25;28.20;59.70
7472;DHT22;3777;48.722;8.110;2023-08-07T11:02:53;27.50;63.40
7472;DHT22;3777;48.722;8.110;2023-08-07T11:05:21;26.70;68.90
7472;DHT22;3777;48.722;8.110;2023-08-07T11:07:51;26.40;66.60
7472;DHT22;3777;48.722;8.110;2023-08-07T11:10:20;26.00;72.40
7472;DHT22;3777;48.722;8.110;2023-08-07T11:12:48;25.40;66.20
7472;DHT22;3777;48.722;8.110;2023-08-07T11:15:15;25.60;74.00
7472;DHT22;3777;48.722;8.110;2023-08-07T11:17:44;25.90;72.60
7472;DHT22;3777;48.722;8.110;2023-08-07T11:20:11;25.90;71.10
7472;DHT22;3777;48.722;8.110;2023-08-07T11:22:39;25.90;70.20
7472;DHT22;3777;48.722;8.110;2023-08-07T11:25:07;25.50;71.50
7472;DHT22;3777;48.722;8.110;2023-08-07T11:27:39;25.60;70.70
7472;DHT22;3777;48.722;8.110;2023-08-07T11:30:11;25.80;72.10
7472;DHT22;3777;48.722;8.110;2023-08-07T11:32:39;25.80;67.70
7472;DHT22;3777;48.722;8.110;2023-08-07T11:35:08;25.30;69.20
7472;DHT22;3777;48.722;8.110;2023-08-07T11:37:35;24.90;69.00
7472;DHT22;3777;48.722;8.110;2023-08-07T11:40:03;24.60;72.80
7472;DHT22;3777;48.722;8.110;2023-08-07T11:42:30;24.40;74.80
7472;DHT22;3777;48.722;8.110;2023-08-07T11:44:57;24.30;77.40
7472;DHT22;3777;48.722;8.110;2023-08-07T11:47:24;23.90;76.30
7472;DHT22;3777;48.722;8.110;2023-08-07T11:49:52;23.90;80.00
7472;DHT22;3777;48.722;8.110;2023-08-07T11:52:21;24.00;80.50
7472;DHT22;3777;48.722;8.110;2023-08-07T11:54:49;24.20;79.50
7472;DHT22;3777;48.722;8.110;2023-08-07T11:57:17;24.20;79.10
7472;DHT22;3777;48.722;8.110;2023-08-07T11:59:48;23.70;78.30
7472;DHT22;3777;48.722;8.110;2023-08-07T12:02:16;23.40;78.60
7472;DHT22;3777;48.722;8.110;2023-08-07T12:04:43;23.10;83.10
7472;DHT22;3777;48.722;8.110;2023-08-07T12:07:10;22.90;82.90
7472;DHT22;3777;48.722;8.110;2023-08-07T12:09:41;22.50;84.40
7472;DHT22;3777;48.722;8.110;2023-08-07T12:12:10;22.20;81.80
7472;DHT22;3777;48.722;8.110;2023-08-07T12:14:38;22.30;84.10
7472;DHT22;3777;48.722;8.110;2023-08-07T12:17:09;22.50;85.70
7472;DHT22;3777;48.722;8.110;2023-08-07T12:19:37;22.80;90.10
7472;DHT22;3777;48.722;8.110;2023-08-07T12:22:07;23.00;87.70
7472;DHT22;3777;48.722;8.110;2023-08-07T12:24:35;23.20;88.40
7472;DHT22;3777;48.722;8.110;2023-08-07T12:27:06;23.00;88.00
7472;DHT22;3777;48.722;8.110;2023-08-07T12:29:33;23.10;90.40
7472;DHT22;3777;48.722;8.110;2023-08-07T12:32:01;23.40;90.30
7472;DHT22;3777;48.722;8.110;2023-08-07T12:34:28;23.50;93.00
7472;DHT22;3777;48.722;8.110;2023-08-07T12:36:55;23.40;90.20
7472;DHT22;3777;48.722;8.110;2023-08-07T12:39:22;23.30;90.50
7472;DHT22;3777;48.722;8.110;2023-08-07T12:41:49;23.20;91.80
7472;DHT22;3777;48.722;8.110;2023-08-07T12:44:17;23.30;93.00
7472;DHT22;3777;48.722;8.110;2023-08-07T12:46:44;23.20;92.90
7472;DHT22;3777;48.722;8.110;2023-08-07T12:49:12;23.10;92.50
7472;DHT22;3777;48.722;8.110;2023-08-07T12:51:39;23.10;92.10
7472;DHT22;3777;48.722;8.110;2023-08-07T12:54:06;23.30;94.70
7472;DHT22;3777;48.722;8.110;2023-08-07T12:56:33;23.30;94.40
7472;DHT22;3777;48.722;8.110;2023-08-07T12:59:00;23.50;91.60
7472;DHT22;3777;48.722;8.110;2023-08-07T13:01:28;23.60;91.60
7472;DHT22;3777;48.722;8.110;2023-08-07T13:03:55;23.90;91.70
7472;DHT22;3777;48.722;8.110;2023-08-07T13:06:22;24.10;93.00
7472;DHT22;3777;48.722;8.110;2023-08-07T13:08:49;24.10;93.30
7472;DHT22;3777;48.722;8.110;2023-08-07T13:11:16;24.00;91.40
7472;DHT22;3777;48.722;8.110;2023-08-07T13:13:43;24.00;91.60
7472;DHT22;3777;48.722;8.110;2023-08-07T13:16:10;23.80;91.80
7472;DHT22;3777;48.722;8.110;2023-08-07T13:18:40;23.60;90.70
7472;DHT22;3777;48.722;8.110;2023-08-07T13:21:07;23.60;91.50
7472;DHT22;3777;48.722;8.110;2023-08-07T13:23:37;23.60;90.00
7472;DHT22;3777;48.722;8.110;2023-08-07T13:26:03;23.60;88.70
7472;DHT22;3777;48.722;8.110;2023-08-07T13:28:30;23.40;86.50
7472;DHT22;3777;48.722;8.110;2023-08-07T13:30:57;23.40;90.50
7472;DHT22;3777;48.722;8.110;2023-08-07T13:33:24;23.20;89.90
7472;DHT22;3777;48.722;8.110;2023-08-07T13:35:53;23.10;91.30
7472;DHT22;3777;48.722;8.110;2023-08-07T13:38:20;23.10;90.80
7472;DHT22;3777;48.722;8.110;2023-08-07T13:40:47;23.10;92.30
7472;DHT22;3777;48.722;8.110;2023-08-07T13:43:14;23.30;93.50
7472;DHT22;3777;48.722;8.110;2023-08-07T13:45:40;23.50;92.60
7472;DHT22;3777;48.722;8.110;2023-08-07T13:48:07;23.50;91.50
7472;DHT22;3777;48.722;8.110;2023-08-07T13:50:35;23.70;91.90
7472;DHT22;3777;48.722;8.110;2023-08-07T13:53:04;23.90;92.90
7472;DHT22;3777;48.722;8.110;2023-08-07T13:55:31;24.10;90.50
7472;DHT22;3777;48.722;8.110;2023-08-07T13:57:58;24.00;90.50
7472;DHT22;3777;48.722;8.110;2023-08-07T14:00:25;24.00;92.10
7472;DHT22;3777;48.722;8.110;2023-08-07T14:02:52;24.10;92.50
7472;DHT22;3777;48.722;8.110;2023-08-07T14:05:19;24.00;91.60
7472;DHT22;3777;48.722;8.110;2023-08-07T14:07:46;23.80;92.50
7472;DHT22;3777;48.722;8.110;2023-08-07T14:10:14;23.50;92.70
7472;DHT22;3777;48.722;8.110;2023-08-07T14:12:41;23.30;92.50
7472;DHT22;3777;48.722;8.110;2023-08-07T14:15:09;23.30;93.10
7472;DHT22;3777;48.722;8.110;2023-08-07T14:17:37;23.00;93.30
7472;DHT22;3777;48.722;8.110;2023-08-07T14:20:05;23.00;94.50
7472;DHT22;3777;48.722;8.110;2023-08-07T14:22:34;22.80;93.20
7472;DHT22;3777;48.722;8.110;2023-08-07T14:25:02;22.90;93.60
7472;DHT22;3777;48.722;8.110;2023-08-07T14:27:31;22.90;93.90
7472;DHT22;3777;48.722;8.110;2023-08-07T14:29:59;23.00;95.40
7472;DHT22;3777;48.722;8.110;2023-08-07T14:32:26;23.20;94.10
7472;DHT22;3777;48.722;8.110;2023-08-07T14:34:53;23.20;93.70
7472;DHT22;3777;48.722;8.110;2023-08-07T14:37:20;23.10;93.10
7472;DHT22;3777;48.722;8.110;2023-08-07T14:39:47;23.00;93.60
7472;DHT22;3777;48.722;8.110;2023-08-07T14:42:14;23.00;97.00
7472;DHT22;3777;48.722;8.110;2023-08-07T14:44:42;23.20;96.20
7472;DHT22;3777;48.722;8.110;2023-08-07T14:47:09;23.10;95.50
7472;DHT22;3777;48.722;8.110;2023-08-07T14:49:36;23.20;94.70
7472;DHT22;3777;48.722;8.110;2023-08-07T14:52:04;23.40;93.60
7472;DHT22;3777;48.722;8.110;2023-08-07T14:54:32;23.60;94.50
7472;DHT22;3777;48.722;8.110;2023-08-07T14:56:58;23.60;94.70
7472;DHT22;3777;48.722;8.110;2023-08-07T14:59:26;23.60;94.30
7472;DHT22;3777;48.722;8.110;2023-08-07T15:01:54;23.50;93.10
7472;DHT22;3777;48.722;8.110;2023-08-07T15:04:21;23.50;92.30
7472;DHT22;3777;48.722;8.110;2023-08-07T15:06:48;23.50;91.80
7472;DHT22;3777;48.722;8.110;2023-08-07T15:09:16;23.30;91.60
7472;DHT22;3777;48.722;8.110;2023-08-07T15:11:45;23.10;91.70
7472;DHT22;3777;48.722;8.110;2023-08-07T15:14:12;23.10;93.30
7472;DHT22;3777;48.722;8.110;2023-08-07T15:16:39;23.10;92.00
7472;DHT22;3777;48.722;8.110;2023-08-07T15:19:08;23.00;90.80
7472;DHT22;3777;48.722;8.110;2023-08-07T15:21:34;23.00;95.90
7472;DHT22;3777;48.722;8.110;2023-08-07T15:24:01;23.00;92.70
7472;DHT22;3777;48.722;8.110;2023-08-07T15:26:28;23.10;95.80
7472;DHT22;3777;48.722;8.110;2023-08-07T15:28:55;23.00;93.30
7472;DHT22;3777;48.722;8.110;2023-08-07T15:31:22;23.00;93.10
7472;DHT22;3777;48.722;8.110;2023-08-07T15:33:49;23.00;91.50
7472;DHT22;3777;48.722;8.110;2023-08-07T15:36:19;22.90;91.70
7472;DHT22;3777;48.722;8.110;2023-08-07T15:38:49;22.80;93.60
7472;DHT22;3777;48.722;8.110;2023-08-07T15:41:16;22.70;91.70
7472;DHT22;3777;48.722;8.110;2023-08-07T15:43:43;22.60;93.70
7472;DHT22;3777;48.722;8.110;2023-08-07T15:46:10;22.70;94.40
7472;DHT22;3777;48.722;8.110;2023-08-07T15:48:37;22.70;93.70
7472;DHT22;3777;48.722;8.110;2023-08-07T15:51:04;22.60;94.40
7472;DHT22;3777;48.722;8.110;2023-08-07T15:53:33;22.80;94.80
7472;DHT22;3777;48.722;8.110;2023-08-07T15:56:00;22.90;92.80
7472;DHT22;3777;48.722;8.110;2023-08-07T15:58:27;23.00;92.00
7472;DHT22;3777;48.722;8.110;2023-08-07T16:00:54;22.80;90.50
7472;DHT22;3777;48.722;8.110;2023-08-07T16:03:21;22.70;90.50
7472;DHT22;3777;48.722;8.110;2023-08-07T16:05:49;22.60;91.80